createdAt,value
2022-10-11T00:00:44.347Z,89.52
2022-10-11T00:03:12.121Z,89.51
2022-10-11T00:05:44.234Z,89.89
2022-10-11T00:08:12.230Z,89.56
2022-10-11T00:10:40.599Z,89.70
2022-10-11T00:13:08.574Z,89.83
2022-10-11T00:15:36.591Z,89.73
2022-10-11T00:18:05.526Z,89.73
2022-10-11T00:20:33.979Z,89.63
2022-10-11T00:23:03.032Z,89.77
2022-10-11T00:25:30.745Z,89.73
2022-10-11T00:27:58.484Z,89.77
2022-10-11T00:30:26.541Z,89.85
2022-10-11T00:32:54.234Z,89.79
2022-10-11T00:35:22.644Z,89.91
2022-10-11T00:37:50.441Z,89.88
2022-10-11T00:40:21.545Z,89.87
2022-10-11T00:42:49.266Z,89.90
2022-10-11T00:45:55.286Z,89.74
2022-10-11T00:48:27.517Z,89.35
2022-10-11T00:50:56.624Z,88.64
2022-10-11T00:53:24.721Z,88.83
2022-10-11T00:56:00.479Z,88.94
2022-10-11T00:58:28.465Z,89.25
2022-10-11T01:00:56.828Z,88.93
2022-10-11T01:03:27.794Z,88.83
2022-10-11T01:05:57.239Z,88.86
2022-10-11T01:08:25.728Z,89.13
2022-10-11T01:10:56.168Z,88.92
2022-10-11T01:13:37.072Z,88.81
2022-10-11T01:16:15.181Z,88.68
2022-10-11T01:18:50.674Z,88.29
2022-10-11T01:21:33.534Z,88.26
2022-10-11T01:24:24.729Z,88.30
2022-10-11T01:27:38.439Z,88.51
2022-10-11T01:30:25.057Z,88.29
2022-10-11T01:33:01.846Z,88.08
2022-10-11T01:35:36.723Z,87.58
2022-10-11T01:38:11.523Z,87.92
2022-10-11T01:40:46.867Z,88.44
2022-10-11T01:43:16.185Z,88.84
2022-10-11T01:45:49.367Z,89.54
2022-10-11T01:48:17.263Z,89.98
2022-10-11T01:50:47.993Z,89.54
2022-10-11T01:53:36.112Z,89.53
2022-10-11T01:56:15.964Z,89.54
2022-10-11T01:58:57.969Z,89.52
2022-10-11T02:01:38.992Z,89.61
2022-10-11T02:04:14.055Z,89.82
2022-10-11T02:06:50.691Z,89.58
2022-10-11T02:09:26.516Z,89.53
2022-10-11T02:12:00.197Z,89.47
2022-10-11T02:14:34.622Z,89.64
2022-10-11T02:17:09.594Z,89.66
2022-10-11T02:19:41.952Z,89.52
2022-10-11T02:22:16.310Z,89.92
2022-10-11T02:24:50.181Z,89.94
2022-10-11T02:27:22.727Z,90.10
2022-10-11T02:29:52.551Z,89.99
2022-10-11T02:32:26.457Z,90.02
2022-10-11T02:34:56.392Z,90.17
2022-10-11T02:37:31.414Z,90.17
2022-10-11T02:40:05.026Z,90.06
2022-10-11T02:42:37.747Z,90.05
2022-10-11T02:45:10.644Z,89.86
2022-10-11T02:47:41.172Z,90.03
2022-10-11T02:50:09.386Z,89.73
2022-10-11T02:52:37.754Z,89.90
2022-10-11T02:55:06.561Z,90.16
2022-10-11T02:57:34.577Z,90.29
2022-10-11T03:00:02.679Z,90.21
2022-10-11T03:02:30.724Z,90.21
2022-10-11T03:05:00.145Z,90.45
2022-10-11T03:07:28.215Z,90.52
2022-10-11T03:09:55.927Z,90.64
2022-10-11T03:12:23.837Z,90.69
2022-10-11T03:14:51.536Z,90.63
2022-10-11T03:17:35.689Z,90.64
2022-10-11T03:20:07.053Z,90.52
2022-10-11T03:22:35.563Z,90.74
2022-10-11T03:25:04.591Z,90.93
2022-10-11T03:27:33.196Z,90.73
2022-10-11T03:30:00.957Z,91.00
2022-10-11T03:32:29.835Z,90.80
2022-10-11T03:34:57.658Z,90.95
2022-10-11T03:37:27.705Z,90.82
2022-10-11T03:39:55.417Z,90.93
2022-10-11T03:42:23.429Z,90.92
2022-10-11T03:44:51.959Z,90.94
2022-10-11T03:47:20.817Z,90.75
2022-10-11T03:49:48.470Z,90.51
2022-10-11T03:52:16.484Z,90.34
2022-10-11T03:54:46.281Z,90.41
2022-10-11T03:57:13.965Z,90.25
2022-10-11T03:59:42.352Z,90.35
2022-10-11T04:02:10.509Z,90.17
2022-10-11T04:04:38.705Z,90.23
2022-10-11T04:07:06.666Z,90.68
2022-10-11T04:09:34.846Z,91.07
2022-10-11T04:12:04.041Z,90.78
2022-10-11T04:14:31.762Z,90.88
2022-10-11T04:17:00.516Z,90.68
2022-10-11T04:19:29.415Z,90.89
2022-10-11T04:21:57.620Z,91.07
2022-10-11T04:24:25.314Z,90.52
2022-10-11T04:26:53.039Z,90.43
2022-10-11T04:29:22.689Z,90.36
2022-10-11T04:31:50.409Z,90.37
2022-10-11T04:34:18.593Z,90.66
2022-10-11T04:36:49.775Z,90.69
2022-10-11T04:39:17.864Z,90.76
2022-10-11T04:41:45.586Z,90.84
2022-10-11T04:44:13.338Z,90.93
2022-10-11T04:46:42.383Z,90.96
2022-10-11T04:49:10.082Z,91.05
2022-10-11T04:51:37.858Z,91.39
2022-10-11T04:54:05.835Z,91.35
2022-10-11T04:56:33.555Z,91.38
2022-10-11T04:59:01.298Z,91.35
2022-10-11T05:01:29.009Z,91.54
2022-10-11T05:03:58.663Z,91.42
2022-10-11T05:06:26.676Z,91.66
2022-10-11T05:08:55.185Z,91.52
2022-10-11T05:11:23.179Z,91.36
2022-10-11T05:13:52.517Z,91.55
2022-10-11T05:16:20.194Z,91.67
2022-10-11T05:18:48.095Z,91.48
2022-10-11T05:21:19.577Z,91.22
2022-10-11T05:23:48.640Z,91.30
2022-10-11T05:26:17.171Z,91.41
2022-10-11T05:28:45.688Z,91.58
2022-10-11T05:31:13.777Z,91.20
2022-10-11T05:33:42.047Z,91.26
2022-10-11T05:36:10.225Z,91.29
2022-10-11T05:38:40.531Z,91.23
2022-10-11T05:41:09.966Z,91.23
2022-10-11T05:43:37.989Z,91.11
2022-10-11T05:46:07.093Z,91.10
2022-10-11T05:48:35.562Z,91.08
2022-10-11T05:51:06.438Z,91.29
2022-10-11T05:53:34.261Z,91.05
2022-10-11T05:56:04.459Z,91.03
2022-10-11T05:58:32.313Z,91.01
2022-10-11T06:01:00.414Z,91.03
2022-10-11T06:03:28.383Z,91.15
2022-10-11T06:05:57.350Z,91.02
2022-10-11T06:08:25.185Z,91.61
2022-10-11T06:10:52.886Z,91.27
2022-10-11T06:13:21.926Z,91.20
2022-10-11T06:15:49.945Z,90.97
2022-10-11T06:18:17.622Z,91.11
2022-10-11T06:20:45.610Z,91.25
2022-10-11T06:23:13.293Z,91.21
2022-10-11T06:25:41.667Z,91.05
2022-10-11T06:28:09.383Z,91.71
2022-10-11T06:30:40.056Z,91.58
2022-10-11T06:33:07.750Z,91.87
2022-10-11T06:35:35.798Z,91.99
2022-10-11T06:38:03.477Z,91.05
2022-10-11T06:40:31.169Z,90.01
2022-10-11T06:42:58.850Z,90.21
2022-10-11T06:45:27.038Z,90.54
2022-10-11T06:47:56.102Z,89.92
2022-10-11T06:50:47.145Z,90.24
2022-10-11T06:53:12.338Z,90.57
2022-10-11T06:55:40.053Z,90.45
2022-10-11T06:58:07.763Z,90.50
2022-10-11T07:00:35.523Z,90.49
2022-10-11T07:03:04.878Z,90.53
2022-10-11T07:05:33.451Z,90.16
2022-10-11T07:08:01.171Z,89.67
2022-10-11T07:10:29.417Z,88.87
2022-10-11T07:12:57.325Z,88.16
2022-10-11T07:15:25.309Z,87.21
2022-10-11T07:17:53.003Z,86.94
2022-10-11T07:20:22.707Z,86.52
2022-10-11T07:22:50.386Z,85.95
2022-10-11T07:25:18.481Z,86.04
2022-10-11T07:27:46.215Z,86.42
2022-10-11T07:30:14.184Z,86.52
2022-10-11T07:32:41.874Z,86.51
2022-10-11T07:35:10.167Z,86.35
2022-10-11T07:37:39.241Z,86.81
2022-10-11T07:40:10.840Z,86.94
2022-10-11T07:42:38.741Z,86.59
2022-10-11T07:45:07.547Z,85.76
2022-10-11T07:47:35.225Z,85.36
2022-10-11T07:50:03.245Z,84.54
2022-10-11T07:52:30.943Z,84.64
2022-10-11T07:54:59.993Z,84.23
2022-10-11T07:57:27.713Z,84.34
2022-10-11T07:59:55.445Z,84.32
2022-10-11T08:02:23.163Z,84.40
2022-10-11T08:04:51.374Z,84.17
2022-10-11T08:07:19.063Z,83.48
2022-10-11T08:09:47.201Z,83.01
2022-10-11T08:12:16.246Z,82.57
2022-10-11T08:14:44.580Z,81.64
2022-10-11T08:17:12.277Z,81.14
2022-10-11T08:19:40.240Z,80.62
2022-10-11T08:22:08.033Z,80.18
2022-10-11T08:24:38.348Z,79.95
2022-10-11T08:27:06.422Z,79.83
2022-10-11T08:29:35.791Z,79.88
2022-10-11T08:32:03.493Z,80.33
2022-10-11T08:34:31.230Z,78.87
2022-10-11T08:36:58.915Z,77.66
2022-10-11T08:39:26.754Z,77.22
2022-10-11T08:41:56.617Z,77.41
2022-10-11T08:45:05.876Z,77.66
2022-10-11T08:47:31.946Z,77.68
2022-10-11T08:50:00.707Z,77.55
2022-10-11T08:52:32.023Z,78.15
2022-10-11T08:55:04.384Z,78.41
2022-10-11T08:57:36.754Z,78.45
2022-10-11T09:00:08.771Z,78.40
2022-10-11T09:03:07.588Z,78.57
2022-10-11T09:05:37.224Z,77.95
2022-10-11T09:08:14.931Z,78.00
2022-10-11T09:10:56.519Z,78.59
2022-10-11T09:13:43.649Z,78.15
2022-10-11T09:16:23.867Z,77.62
2022-10-11T09:19:08.496Z,77.02
2022-10-11T09:21:43.134Z,76.88
2022-10-11T09:24:37.913Z,76.27
2022-10-11T09:27:17.862Z,75.73
2022-10-11T09:29:55.797Z,75.31
2022-10-11T09:32:29.829Z,75.68
2022-10-11T09:35:01.875Z,75.06
2022-10-11T09:37:35.627Z,75.71
2022-10-11T09:40:13.785Z,75.97
2022-10-11T09:42:41.668Z,75.52
2022-10-11T09:45:21.664Z,73.53
2022-10-11T09:47:52.620Z,70.36
2022-10-11T09:50:22.570Z,68.25
2022-10-11T09:52:51.542Z,68.68
2022-10-11T09:55:39.698Z,68.81
2022-10-11T09:58:27.893Z,69.64
2022-10-11T10:01:07.322Z,69.60
2022-10-11T10:03:39.052Z,69.81
2022-10-11T10:06:10.921Z,69.25
2022-10-11T10:08:38.862Z,68.49
2022-10-11T10:11:08.372Z,68.62
2022-10-11T10:13:44.109Z,68.94
2022-10-11T10:16:24.783Z,68.91
2022-10-11T10:18:56.376Z,68.37
2022-10-11T10:21:29.069Z,66.94
2022-10-11T10:24:00.006Z,65.68
2022-10-11T10:26:28.078Z,66.39
2022-10-11T10:28:59.108Z,66.16
2022-10-11T10:31:44.396Z,66.01
2022-10-11T10:34:24.396Z,67.30
2022-10-11T10:36:56.333Z,66.23
2022-10-11T10:39:30.067Z,65.88
2022-10-11T10:41:58.342Z,67.09
2022-10-11T10:44:26.153Z,67.12
2022-10-11T10:47:06.821Z,66.62
2022-10-11T10:49:59.586Z,66.63
2022-10-11T10:52:47.350Z,66.26
2022-10-11T10:55:24.768Z,65.80
2022-10-11T10:58:06.179Z,66.31
2022-10-11T11:00:43.424Z,66.56
2022-10-11T11:03:21.570Z,66.65
2022-10-11T11:06:01.321Z,65.14
2022-10-11T11:08:58.717Z,64.98
2022-10-11T11:11:40.670Z,64.69
2022-10-11T11:14:20.239Z,64.57
2022-10-11T11:16:55.446Z,63.38
2022-10-11T11:19:34.727Z,64.08
2022-10-11T11:22:11.217Z,63.64
2022-10-11T11:24:52.919Z,61.94
2022-10-11T11:27:32.295Z,63.25
2022-10-11T11:30:05.548Z,65.39
2022-10-11T11:32:47.077Z,65.97
2022-10-11T11:35:20.808Z,64.38
2022-10-11T11:38:00.197Z,64.89
2022-10-11T11:40:38.159Z,63.94
2022-10-11T11:43:09.438Z,62.75
2022-10-11T11:45:47.374Z,62.87
2022-10-11T11:48:18.979Z,63.16
2022-10-11T11:50:54.111Z,63.02
2022-10-11T11:53:36.463Z,62.57
2022-10-11T11:56:10.218Z,62.93
2022-10-11T11:58:44.797Z,62.58
2022-10-11T12:01:24.013Z,62.76
2022-10-11T12:03:56.175Z,63.73
2022-10-11T12:06:27.278Z,64.46
2022-10-11T12:09:09.124Z,65.40
2022-10-11T12:11:45.972Z,64.73
2022-10-11T12:14:27.601Z,64.40
2022-10-11T12:17:20.354Z,64.26
2022-10-11T12:20:17.338Z,64.45
2022-10-11T12:23:24.430Z,63.66
2022-10-11T12:26:20.721Z,65.05
2022-10-11T12:29:35.980Z,64.97
2022-10-11T12:32:53.629Z,65.07
2022-10-11T12:36:08.291Z,65.45
2022-10-11T12:38:39.917Z,66.19
2022-10-11T12:41:50.744Z,66.62
2022-10-11T12:44:24.104Z,66.12
2022-10-11T12:47:33.583Z,66.37
2022-10-11T12:50:16.941Z,66.13
2022-10-11T12:52:57.977Z,64.80
2022-10-11T12:55:42.831Z,65.18
2022-10-11T12:58:26.859Z,65.39
2022-10-11T13:01:14.540Z,65.62
2022-10-11T13:03:43.902Z,65.83
2022-10-11T13:06:16.862Z,66.36
2022-10-11T13:08:48.427Z,66.52
2022-10-11T13:11:21.508Z,66.65
2022-10-11T13:13:55.022Z,67.17
2022-10-11T13:16:25.937Z,67.15
2022-10-11T13:18:57.458Z,66.86
2022-10-11T13:21:30.199Z,66.89
2022-10-11T13:24:01.528Z,68.29
2022-10-11T13:26:32.235Z,67.68
2022-10-11T13:29:01.395Z,67.90
2022-10-11T13:31:29.688Z,67.87
2022-10-11T13:34:00.396Z,67.76
2022-10-11T13:36:28.664Z,67.96
2022-10-11T13:38:59.622Z,68.31
2022-10-11T13:41:29.360Z,68.73
2022-10-11T13:43:59.521Z,68.58
2022-10-11T13:46:30.514Z,67.71
2022-10-11T13:48:59.961Z,68.54
2022-10-11T13:51:32.397Z,68.07
2022-10-11T13:54:05.096Z,68.09
2022-10-11T13:56:37.971Z,68.44
2022-10-11T13:59:06.403Z,68.43
2022-10-11T14:01:41.713Z,68.59
2022-10-11T14:04:12.472Z,69.22
2022-10-11T14:06:45.332Z,68.66
2022-10-11T14:09:21.547Z,69.14
2022-10-11T14:11:50.151Z,69.73
2022-10-11T14:14:48.877Z,70.15
2022-10-11T14:17:20.994Z,69.59
2022-10-11T14:20:08.711Z,69.62
2022-10-11T14:22:39.456Z,69.20
2022-10-11T14:25:07.550Z,69.30
2022-10-11T14:27:35.585Z,69.18
2022-10-11T14:30:24.484Z,68.57
2022-10-11T14:32:55.628Z,68.82
2022-10-11T14:35:30.436Z,68.82
2022-10-11T14:37:58.639Z,69.12
2022-10-11T14:40:28.514Z,68.70
2022-10-11T14:42:57.000Z,68.59
2022-10-11T14:45:25.121Z,68.47
2022-10-11T14:47:55.222Z,68.92
2022-10-11T14:50:37.741Z,68.90
2022-10-11T14:53:06.087Z,68.22
2022-10-11T14:55:34.010Z,68.40
2022-10-11T14:58:02.318Z,68.17
2022-10-11T15:00:30.995Z,68.93
2022-10-11T15:03:01.000Z,69.13
2022-10-11T15:05:33.854Z,68.30
2022-10-11T15:08:02.336Z,68.40
2022-10-11T15:10:31.862Z,69.33
2022-10-11T15:13:00.408Z,69.62
2022-10-11T15:15:30.595Z,70.07
2022-10-11T15:18:01.879Z,70.05
2022-10-11T15:20:32.597Z,70.45
2022-10-11T15:23:01.827Z,70.63
2022-10-11T15:25:30.321Z,71.05
2022-10-11T15:27:58.793Z,71.41
2022-10-11T15:30:29.558Z,71.11
2022-10-11T15:32:57.379Z,70.88
2022-10-11T15:35:27.957Z,71.44
2022-10-11T15:37:58.420Z,71.57
2022-10-11T15:40:28.959Z,72.55
2022-10-11T15:42:56.788Z,73.20
2022-10-11T15:45:25.856Z,73.99
2022-10-11T15:47:53.971Z,74.08
2022-10-11T15:50:34.797Z,74.54
2022-10-11T15:53:05.564Z,74.77
2022-10-11T15:55:34.689Z,75.21
2022-10-11T15:58:02.540Z,75.48
2022-10-11T16:00:30.877Z,75.84
2022-10-11T16:03:00.275Z,75.96
2022-10-11T16:05:29.226Z,76.33
2022-10-11T16:07:56.936Z,76.59
2022-10-11T16:10:25.992Z,76.95
2022-10-11T16:12:54.326Z,77.04
2022-10-11T16:15:22.008Z,77.25
2022-10-11T16:17:50.465Z,77.66
2022-10-11T16:20:22.068Z,77.94
2022-10-11T16:22:50.255Z,77.92
2022-10-11T16:25:18.569Z,78.12
2022-10-11T16:27:48.191Z,78.43
2022-10-11T16:30:17.214Z,78.74
2022-10-11T16:32:46.012Z,78.82
2022-10-11T16:35:15.830Z,79.07
2022-10-11T16:37:44.429Z,79.13
2022-10-11T16:40:15.769Z,79.19
2022-10-11T16:42:43.471Z,79.39
2022-10-11T16:45:12.784Z,79.55
2022-10-11T16:47:40.807Z,79.87
2022-10-11T16:50:10.194Z,79.96
2022-10-11T16:52:38.326Z,80.37
2022-10-11T16:55:07.593Z,80.32
2022-10-11T16:57:37.632Z,80.67
2022-10-11T17:00:07.765Z,81.10
2022-10-11T17:02:37.241Z,81.27
2022-10-11T17:05:06.065Z,81.26
2022-10-11T17:07:33.787Z,81.39
2022-10-11T17:10:01.998Z,81.61
2022-10-11T17:12:31.835Z,81.84
2022-10-11T17:14:59.575Z,81.78
2022-10-11T17:17:27.998Z,81.94
2022-10-11T17:19:57.300Z,82.04
2022-10-11T17:22:25.563Z,82.34
2022-10-11T17:24:53.560Z,82.43
2022-10-11T17:27:21.277Z,82.41
2022-10-11T17:29:49.860Z,82.30
2022-10-11T17:32:17.557Z,81.23
2022-10-11T17:34:45.283Z,80.66
2022-10-11T17:37:14.368Z,80.62
2022-10-11T17:39:42.406Z,80.42
2022-10-11T17:42:10.106Z,80.61
2022-10-11T17:44:37.970Z,80.77
2022-10-11T17:47:05.807Z,80.54
2022-10-11T17:49:33.592Z,80.77
2022-10-11T17:52:01.306Z,80.86
2022-10-11T17:54:30.543Z,80.94
2022-10-11T17:56:58.794Z,81.21
2022-10-11T17:59:28.803Z,81.27
2022-10-11T18:01:56.530Z,81.58
2022-10-11T18:04:27.257Z,81.73
2022-10-11T18:06:55.212Z,81.61
2022-10-11T18:09:24.617Z,81.46
2022-10-11T18:11:53.936Z,81.35
2022-10-11T18:14:21.772Z,81.55
2022-10-11T18:16:49.970Z,81.73
2022-10-11T18:19:18.052Z,81.72
2022-10-11T18:21:45.894Z,81.90
2022-10-11T18:24:15.976Z,81.97
2022-10-11T18:26:44.718Z,82.03
2022-10-11T18:29:14.327Z,81.96
2022-10-11T18:31:42.400Z,81.85
2022-10-11T18:34:11.631Z,82.18
2022-10-11T18:36:39.858Z,82.18
2022-10-11T18:39:09.354Z,82.30
2022-10-11T18:41:39.426Z,82.12
2022-10-11T18:44:11.265Z,82.82
2022-10-11T18:46:40.754Z,83.18
2022-10-11T18:49:08.889Z,83.06
2022-10-11T18:51:38.326Z,82.98
2022-10-11T18:54:08.169Z,83.00
2022-10-11T18:56:37.037Z,83.33
2022-10-11T18:59:06.439Z,83.36
2022-10-11T19:01:35.876Z,83.31
2022-10-11T19:04:06.791Z,83.15
2022-10-11T19:06:38.158Z,83.35
2022-10-11T19:09:08.236Z,83.35
2022-10-11T19:11:36.207Z,83.39
2022-10-11T19:14:07.281Z,83.38
2022-10-11T19:16:37.607Z,83.49
2022-10-11T19:19:07.322Z,83.55
2022-10-11T19:21:35.092Z,83.58
2022-10-11T19:24:02.928Z,83.68
2022-10-11T19:26:33.498Z,83.45
2022-10-11T19:29:04.856Z,83.55
2022-10-11T19:31:33.457Z,83.61
2022-10-11T19:34:01.756Z,83.67
2022-10-11T19:36:36.243Z,83.64
2022-10-11T19:39:05.439Z,83.81
2022-10-11T19:41:33.543Z,83.66
2022-10-11T19:44:01.308Z,83.76
2022-10-11T19:46:50.457Z,83.79
2022-10-11T19:49:20.270Z,83.74
2022-10-11T19:51:49.340Z,83.75
2022-10-11T19:54:17.929Z,83.72
2022-10-11T19:56:45.810Z,83.62
2022-10-11T19:59:14.438Z,83.58
2022-10-11T20:01:46.637Z,83.22
2022-10-11T20:04:39.525Z,83.53
2022-10-11T20:07:06.434Z,83.53
2022-10-11T20:09:34.505Z,83.42
2022-10-11T20:12:02.199Z,83.82
2022-10-11T20:14:30.491Z,83.69
2022-10-11T20:16:58.858Z,83.98
2022-10-11T20:19:30.706Z,84.18
2022-10-11T20:21:59.750Z,84.38
2022-10-11T20:24:32.616Z,84.08
2022-10-11T20:27:01.410Z,84.24
2022-10-11T20:29:29.466Z,84.36
2022-10-11T20:31:58.801Z,84.22
2022-10-11T20:34:27.603Z,84.25
2022-10-11T20:36:55.351Z,84.50
2022-10-11T20:39:23.639Z,84.48
2022-10-11T20:41:52.696Z,84.52
2022-10-11T20:44:20.768Z,84.44
2022-10-11T20:46:48.521Z,84.64
2022-10-11T20:49:16.610Z,84.30
2022-10-11T20:51:44.305Z,84.05
2022-10-11T20:54:12.774Z,84.29
2022-10-11T20:56:41.737Z,84.02
2022-10-11T20:59:11.296Z,83.74
2022-10-11T21:01:40.765Z,83.83
2022-10-11T21:04:15.258Z,83.79
2022-10-11T21:06:43.249Z,83.94
2022-10-11T21:09:15.505Z,83.96
2022-10-11T21:11:44.579Z,83.86
2022-10-11T21:14:14.089Z,83.89
2022-10-11T21:16:41.956Z,83.66
2022-10-11T21:19:14.534Z,83.67
2022-10-11T21:21:42.354Z,83.64
2022-10-11T21:24:10.798Z,83.64
2022-10-11T21:26:38.501Z,83.72
2022-10-11T21:29:07.501Z,83.65
2022-10-11T21:31:37.036Z,83.61
2022-10-11T21:34:07.298Z,83.83
2022-10-11T21:36:35.110Z,83.70
2022-10-11T21:39:03.670Z,83.89
2022-10-11T21:41:31.359Z,83.66
2022-10-11T21:43:59.686Z,83.85
2022-10-11T21:49:19.734Z,83.56
2022-10-11T21:51:47.445Z,83.63
2022-10-11T21:54:15.496Z,83.74
2022-10-11T21:56:43.289Z,84.00
2022-10-11T21:59:12.615Z,84.01
2022-10-11T22:01:41.684Z,84.02
2022-10-11T22:04:11.579Z,83.80
2022-10-11T22:06:41.203Z,84.17
2022-10-11T22:09:10.070Z,83.99
2022-10-11T22:11:38.254Z,84.22
2022-10-11T22:14:07.067Z,84.23
2022-10-11T22:16:35.587Z,84.29
2022-10-11T22:19:03.434Z,84.45
2022-10-11T22:21:31.216Z,84.49
2022-10-11T22:24:00.291Z,84.58
2022-10-11T22:26:30.989Z,84.39
2022-10-11T22:28:59.914Z,84.73
2022-10-11T22:31:27.839Z,84.71
2022-10-11T22:33:56.551Z,84.91
2022-10-11T22:36:25.069Z,84.81
2022-10-11T22:38:54.760Z,84.76
2022-10-11T22:41:24.551Z,84.84
2022-10-11T22:43:52.814Z,84.85
2022-10-11T22:46:20.614Z,84.92
2022-10-11T22:48:48.769Z,84.89
2022-10-11T22:51:17.094Z,85.06
2022-10-11T22:53:44.792Z,85.17
2022-10-11T22:56:13.305Z,85.19
2022-10-11T22:58:42.350Z,85.13
2022-10-11T23:01:11.452Z,85.35
2022-10-11T23:03:39.259Z,85.45
2022-10-11T23:06:07.884Z,85.36
2022-10-11T23:08:35.695Z,85.56
2022-10-11T23:11:05.353Z,85.52
2022-10-11T23:13:33.059Z,85.67
2022-10-11T23:16:07.127Z,85.78
2022-10-11T23:18:35.421Z,85.74
2022-10-11T23:21:03.441Z,85.60
2022-10-11T23:23:31.189Z,85.67
2022-10-11T23:26:06.100Z,85.54
2022-10-11T23:28:34.284Z,85.43
2022-10-11T23:31:07.562Z,85.47
2022-10-11T23:33:35.380Z,85.56
2022-10-11T23:36:03.404Z,85.74
2022-10-11T23:38:31.405Z,85.58
2022-10-11T23:40:59.420Z,85.74
2022-10-11T23:43:27.108Z,85.68
2022-10-11T23:45:56.334Z,85.89
2022-10-11T23:48:25.434Z,86.04
2022-10-11T23:50:53.506Z,85.81
2022-10-11T23:53:21.228Z,85.98
2022-10-11T23:55:49.151Z,86.11
2022-10-11T23:58:16.825Z,86.20
